NC03 weather

Darr Field
High Point, North Carolina, United States

Public forecast

Using degrees Fahrenheit for public forecast. Weather courtesy of forecast.io.

METAR (pilot weather report)

Closest report is Piedmont Triad International Airport, 11.6 nm (21.5 km) NNE. Retrieved 2019/09/23 18:54 UTC (7 minutes ago):

KGSO 231854Z 26010G16KT 10SM FEW070 BKN250 31/13 A2998 RMK AO2 SLP139 T03110128

TAF (pilot weather forecast)

Closest forecast is Piedmont Triad International Airport, 11.6 nm (21.5 km) NNE. Retrieved 2019/09/23 18:22 UTC (39 minutes ago):

TAF KGSO 231720Z 2318/2418 22007KT P6SM SCT250 FM240000 25004KT P6SM BKN060 FM240600 31005KT P6SM SCT050 FM241400 01006KT P6SM FEW250